createdAt,value
2023-04-16T00:01:16.083Z,17.23
2023-04-16T00:03:42.725Z,19.55
2023-04-16T00:06:10.915Z,17.25
2023-04-16T00:08:37.440Z,18.45
2023-04-16T00:11:03.974Z,22.25
2023-04-16T00:13:30.560Z,14.23
2023-04-16T00:15:57.175Z,21.88
2023-04-16T00:18:23.767Z,18.77
2023-04-16T00:20:50.868Z,14.68
2023-04-16T00:23:17.519Z,14.43
2023-04-16T00:25:44.062Z,11.60
2023-04-16T00:28:11.164Z,18.20
2023-04-16T00:30:37.866Z,17.65
2023-04-16T00:33:04.880Z,22.67
2023-04-16T00:35:31.369Z,15.43
2023-04-16T00:37:57.910Z,17.05
2023-04-16T00:40:27.113Z,18.73
2023-04-16T00:42:53.587Z,20.98
2023-04-16T00:45:20.245Z,23.27
2023-04-16T00:47:47.064Z,13.57
2023-04-16T00:50:14.286Z,19.88
2023-04-16T00:52:40.924Z,18.02
2023-04-16T00:55:07.784Z,25.73
2023-04-16T00:57:34.305Z,16.15
2023-04-16T01:00:00.848Z,19.63
2023-04-16T01:02:27.543Z,15.73
2023-04-16T01:04:55.150Z,27.55
2023-04-16T01:07:21.633Z,20.55
2023-04-16T01:09:48.174Z,20.77
2023-04-16T01:12:14.755Z,17.52
2023-04-16T01:14:41.324Z,19.95
2023-04-16T01:17:07.842Z,14.25
2023-04-16T01:19:38.514Z,14.48
2023-04-16T01:22:05.245Z,18.42
2023-04-16T01:24:31.910Z,21.13
2023-04-16T01:26:59.454Z,27.15
2023-04-16T01:29:26.616Z,18.55
2023-04-16T01:31:53.253Z,22.83
2023-04-16T01:34:19.957Z,19.13
2023-04-16T01:36:46.474Z,18.63
2023-04-16T01:39:15.747Z,18.35
2023-04-16T01:41:42.771Z,19.48
2023-04-16T01:44:09.357Z,21.95
2023-04-16T01:46:35.901Z,20.98
2023-04-16T01:49:02.813Z,19.17
2023-04-16T01:51:29.297Z,16.73
2023-04-16T01:53:56.114Z,19.77
2023-04-16T01:56:22.656Z,14.20
2023-04-16T01:58:49.190Z,19.63
2023-04-16T02:01:16.224Z,15.38
2023-04-16T02:03:43.103Z,18.73
2023-04-16T02:06:09.760Z,23.92
2023-04-16T02:08:36.424Z,18.13
2023-04-16T02:11:03.010Z,21.25
2023-04-16T02:13:29.622Z,21.42
2023-04-16T02:15:56.173Z,23.85
2023-04-16T02:18:22.721Z,16.88
2023-04-16T02:20:51.962Z,18.77
2023-04-16T02:23:18.474Z,18.35
2023-04-16T02:25:46.017Z,22.38
2023-04-16T02:28:13.489Z,16.45
2023-04-16T02:30:40.660Z,23.75
2023-04-16T02:33:08.239Z,15.00
2023-04-16T02:35:34.979Z,23.77
2023-04-16T02:38:01.968Z,20.00
2023-04-16T02:40:29.482Z,13.52
2023-04-16T02:42:56.169Z,17.17
2023-04-16T02:45:22.818Z,18.90
2023-04-16T02:47:49.879Z,28.88
2023-04-16T02:50:16.751Z,18.27
2023-04-16T02:52:43.334Z,13.25
2023-04-16T02:55:10.490Z,21.05
2023-04-16T02:57:36.996Z,16.70
2023-04-16T03:00:05.196Z,16.90
2023-04-16T03:02:31.936Z,18.48
2023-04-16T03:04:58.648Z,16.65
2023-04-16T03:07:25.279Z,17.58
2023-04-16T03:09:51.928Z,18.27
2023-04-16T03:12:18.413Z,20.73
2023-04-16T03:14:44.888Z,18.58
2023-04-16T03:17:11.669Z,23.38
2023-04-16T03:19:38.153Z,17.17
2023-04-16T03:22:04.816Z,20.33
2023-04-16T03:24:31.396Z,18.52
2023-04-16T03:26:58.377Z,15.77
2023-04-16T03:29:25.161Z,21.42
2023-04-16T03:31:51.683Z,19.88
2023-04-16T03:34:18.216Z,20.83
2023-04-16T03:36:44.739Z,19.88
2023-04-16T03:39:11.522Z,18.83
2023-04-16T03:41:38.169Z,19.95
2023-04-16T03:44:04.972Z,25.92
2023-04-16T03:46:31.459Z,18.33
2023-04-16T03:48:57.954Z,21.40
2023-04-16T03:51:25.021Z,19.80
2023-04-16T03:53:51.661Z,15.05
2023-04-16T03:56:18.361Z,18.83
2023-04-16T03:58:44.878Z,20.35
2023-04-16T04:01:11.352Z,13.82
2023-04-16T04:03:38.146Z,20.30
2023-04-16T04:06:08.504Z,18.27
2023-04-16T04:08:35.092Z,19.63
2023-04-16T04:11:01.572Z,20.05
2023-04-16T04:13:28.057Z,17.00
2023-04-16T04:15:54.761Z,14.95
2023-04-16T04:18:21.320Z,17.67
2023-04-16T04:20:47.810Z,18.17
2023-04-16T04:23:14.329Z,14.52
2023-04-16T04:25:40.817Z,21.17
2023-04-16T04:28:07.313Z,12.30
2023-04-16T04:30:35.863Z,22.15
2023-04-16T04:33:02.463Z,16.90
2023-04-16T04:35:29.044Z,18.05
2023-04-16T04:37:55.785Z,15.32
2023-04-16T04:40:22.378Z,14.10
2023-04-16T04:42:49.064Z,13.02
2023-04-16T04:45:16.117Z,19.30
2023-04-16T04:47:42.757Z,15.07
2023-04-16T04:50:09.578Z,14.13
2023-04-16T04:52:36.384Z,17.00
2023-04-16T04:55:02.929Z,18.85
2023-04-16T04:57:29.451Z,13.02
2023-04-16T04:59:56.016Z,14.43
2023-04-16T05:02:22.637Z,13.45
2023-04-16T05:04:49.195Z,15.98
2023-04-16T05:07:16.029Z,11.00
2023-04-16T05:09:42.569Z,19.23
2023-04-16T05:12:09.228Z,17.48
2023-04-16T05:14:36.392Z,17.58
2023-04-16T05:17:03.038Z,14.48
2023-04-16T05:19:29.611Z,16.35
2023-04-16T05:21:56.402Z,11.75
2023-04-16T05:24:23.298Z,16.65
2023-04-16T05:26:49.843Z,15.50
2023-04-16T05:29:16.382Z,15.77
2023-04-16T05:31:43.081Z,14.13
2023-04-16T05:34:09.567Z,14.45
2023-04-16T05:36:36.051Z,21.05
2023-04-16T05:39:02.964Z,12.70
2023-04-16T05:41:29.469Z,14.80
2023-04-16T05:43:56.339Z,17.95
2023-04-16T05:46:22.975Z,13.38
2023-04-16T05:48:49.535Z,17.33
2023-04-16T05:51:16.058Z,13.80
2023-04-16T05:53:42.772Z,22.75
2023-04-16T05:56:09.426Z,13.68
2023-04-16T05:58:35.932Z,13.57
2023-04-16T06:01:02.423Z,19.10
2023-04-16T06:03:29.018Z,18.23
2023-04-16T06:05:55.668Z,23.48
2023-04-16T06:08:22.383Z,19.80
2023-04-16T06:10:49.173Z,18.25
2023-04-16T06:13:15.789Z,26.27
2023-04-16T06:15:42.370Z,16.50
2023-04-16T06:18:09.071Z,19.45
2023-04-16T06:20:35.793Z,17.42
2023-04-16T06:23:02.278Z,18.05
2023-04-16T06:25:28.791Z,13.15
2023-04-16T06:27:55.397Z,11.00
2023-04-16T06:30:21.885Z,17.23
2023-04-16T06:32:49.124Z,15.73
2023-04-16T06:35:16.093Z,27.58
2023-04-16T06:37:42.629Z,19.73
2023-04-16T06:40:09.393Z,13.48
2023-04-16T06:42:36.197Z,13.10
2023-04-16T06:45:02.772Z,11.18
2023-04-16T06:47:29.367Z,13.85
2023-04-16T06:49:55.915Z,15.43
2023-04-16T06:52:22.434Z,12.40
2023-04-16T06:54:48.952Z,15.60
2023-04-16T06:57:16.295Z,16.83
2023-04-16T06:59:42.943Z,11.18
2023-04-16T07:02:10.556Z,14.18
2023-04-16T07:04:37.385Z,14.18
2023-04-16T07:07:03.973Z,9.48
2023-04-16T07:09:30.610Z,7.80
2023-04-16T07:11:57.137Z,8.05
2023-04-16T07:14:23.709Z,10.45
2023-04-16T07:16:50.321Z,9.00
2023-04-16T07:19:16.882Z,10.65
2023-04-16T07:21:43.859Z,6.35
2023-04-16T07:24:11.562Z,5.75
2023-04-16T07:26:38.088Z,4.80
2023-04-16T07:29:04.633Z,12.18
2023-04-16T07:31:31.222Z,3.97
2023-04-16T07:33:58.179Z,6.57
2023-04-16T07:36:24.804Z,6.05
2023-04-16T07:38:51.341Z,5.00
2023-04-16T07:41:17.900Z,8.80
2023-04-16T07:43:44.391Z,3.65
2023-04-16T07:46:11.089Z,6.30
2023-04-16T07:48:37.649Z,5.32
2023-04-16T07:51:04.144Z,5.15
2023-04-16T07:53:30.859Z,2.47
2023-04-16T07:55:57.410Z,4.68
2023-04-16T07:58:23.941Z,3.75
2023-04-16T08:00:51.414Z,3.10
2023-04-16T08:03:18.639Z,3.97
2023-04-16T08:05:45.352Z,3.25
2023-04-16T08:08:11.899Z,2.45
2023-04-16T08:10:38.980Z,4.18
2023-04-16T08:13:05.725Z,5.88
2023-04-16T08:15:32.540Z,2.60
2023-04-16T08:17:59.759Z,4.03
2023-04-16T08:20:26.455Z,3.85
2023-04-16T08:22:53.651Z,3.45
2023-04-16T08:25:20.761Z,2.67
2023-04-16T08:27:47.285Z,5.97
2023-04-16T08:30:13.792Z,2.20
2023-04-16T08:32:40.400Z,2.50
2023-04-16T08:35:07.048Z,3.08
2023-04-16T08:37:33.563Z,3.97
2023-04-16T08:40:01.128Z,4.63
2023-04-16T08:42:43.759Z,1.25
2023-04-16T08:45:10.625Z,4.88
2023-04-16T08:47:37.535Z,1.70
2023-04-16T08:50:05.356Z,5.68
2023-04-16T08:52:32.512Z,3.72
2023-04-16T08:55:03.882Z,3.45
2023-04-16T08:57:34.857Z,2.80
2023-04-16T09:00:01.511Z,3.00
2023-04-16T09:02:28.691Z,5.72
2023-04-16T09:04:56.569Z,3.33
2023-04-16T09:07:24.317Z,3.85
2023-04-16T09:09:52.416Z,2.40
2023-04-16T09:12:19.354Z,3.78
2023-04-16T09:14:49.077Z,1.90
2023-04-16T09:17:16.572Z,5.93
2023-04-16T09:19:43.054Z,5.30
2023-04-16T09:22:09.564Z,1.92
2023-04-16T09:24:38.578Z,3.25
2023-04-16T09:27:05.407Z,2.40
2023-04-16T09:29:36.276Z,2.00
2023-04-16T09:32:06.994Z,1.17
2023-04-16T09:34:34.012Z,3.47
2023-04-16T09:37:16.881Z,3.25
2023-04-16T09:39:43.943Z,6.32
2023-04-16T09:42:10.780Z,4.72
2023-04-16T09:44:37.885Z,1.52
2023-04-16T09:47:08.589Z,5.43
2023-04-16T09:49:38.762Z,3.15
2023-04-16T09:52:09.202Z,4.82
2023-04-16T09:54:35.703Z,3.65
2023-04-16T09:57:02.243Z,2.22
2023-04-16T09:59:31.276Z,4.00
2023-04-16T10:02:15.853Z,2.03
2023-04-16T10:04:50.462Z,1.85
2023-04-16T10:07:17.176Z,2.45
2023-04-16T10:09:43.990Z,4.55
2023-04-16T10:12:12.853Z,3.28
2023-04-16T10:14:39.888Z,2.05
2023-04-16T10:17:06.619Z,1.75
2023-04-16T10:19:33.875Z,1.40
2023-04-16T10:22:00.686Z,1.58
2023-04-16T10:24:28.202Z,1.60
2023-04-16T10:26:55.214Z,4.03
2023-04-16T10:29:22.147Z,4.68
2023-04-16T10:31:49.611Z,5.85
2023-04-16T10:34:16.804Z,3.33
2023-04-16T10:36:43.478Z,2.70
2023-04-16T10:39:12.184Z,2.05
2023-04-16T10:41:40.115Z,5.15
2023-04-16T10:44:10.001Z,4.03
2023-04-16T10:46:39.158Z,3.20
2023-04-16T10:49:15.257Z,3.78
2023-04-16T10:51:42.146Z,4.22
2023-04-16T10:54:08.624Z,1.88
2023-04-16T10:56:36.115Z,4.30
2023-04-16T10:59:07.091Z,2.67
2023-04-16T11:01:37.901Z,2.40
2023-04-16T11:04:19.831Z,1.45
2023-04-16T11:07:04.805Z,4.38
2023-04-16T11:09:50.169Z,2.72
2023-04-16T11:12:18.651Z,2.25
2023-04-16T11:14:52.699Z,2.10
2023-04-16T11:19:45.809Z,2.75
2023-04-16T11:22:13.831Z,3.70
2023-04-16T11:24:41.084Z,5.28
2023-04-16T11:27:08.022Z,5.85
2023-04-16T11:29:34.624Z,2.13
2023-04-16T11:32:01.116Z,4.13
2023-04-16T11:34:27.694Z,8.18
2023-04-16T11:36:54.216Z,3.50
2023-04-16T11:39:20.760Z,4.20
2023-04-16T11:41:47.980Z,2.65
2023-04-16T11:44:24.862Z,5.65
2023-04-16T11:46:52.028Z,1.92
2023-04-16T11:49:27.171Z,5.03
2023-04-16T11:51:53.720Z,7.57
2023-04-16T11:54:20.844Z,4.05
2023-04-16T11:56:48.120Z,6.43
2023-04-16T11:59:18.927Z,7.40
2023-04-16T12:01:47.106Z,4.00
2023-04-16T12:04:14.836Z,2.60
2023-04-16T12:06:41.741Z,6.55
2023-04-16T12:09:27.296Z,3.55
2023-04-16T12:11:54.156Z,2.97
2023-04-16T12:14:20.709Z,4.85
2023-04-16T12:16:47.791Z,2.67
2023-04-16T12:19:14.671Z,3.38
2023-04-16T12:21:45.300Z,3.83
2023-04-16T12:24:16.225Z,3.63
2023-04-16T12:26:43.881Z,4.15
2023-04-16T12:29:17.059Z,3.25
2023-04-16T12:31:44.248Z,1.77
2023-04-16T12:34:10.880Z,3.25
2023-04-16T12:36:37.661Z,1.73
2023-04-16T12:39:05.181Z,2.20
2023-04-16T12:41:31.734Z,2.45
2023-04-16T12:44:09.250Z,3.80
2023-04-16T12:46:37.465Z,2.30
2023-04-16T12:49:04.053Z,2.30
2023-04-16T12:51:31.059Z,2.88
2023-04-16T12:53:57.621Z,2.67
2023-04-16T12:56:24.183Z,2.97
2023-04-16T12:58:52.028Z,2.45
2023-04-16T13:01:21.797Z,4.05
2023-04-16T13:03:48.794Z,2.65
2023-04-16T13:06:16.126Z,5.40
2023-04-16T13:08:45.977Z,5.28
2023-04-16T13:11:12.868Z,3.60
2023-04-16T13:13:39.478Z,7.65
2023-04-16T13:16:08.612Z,2.50
2023-04-16T13:18:36.468Z,7.50
2023-04-16T13:21:03.432Z,5.32
2023-04-16T13:23:29.990Z,2.47
2023-04-16T13:25:56.503Z,4.05
2023-04-16T13:28:22.990Z,7.70
2023-04-16T13:30:49.604Z,2.92
2023-04-16T13:33:16.461Z,3.30
2023-04-16T13:35:43.059Z,5.05
2023-04-16T13:38:09.554Z,5.18
2023-04-16T13:40:36.083Z,3.75
2023-04-16T13:43:02.617Z,3.08
2023-04-16T13:45:29.092Z,2.83
2023-04-16T13:47:56.442Z,4.65
2023-04-16T13:50:23.076Z,7.93
2023-04-16T13:52:49.557Z,5.15
2023-04-16T13:55:19.310Z,2.17
2023-04-16T13:57:47.293Z,9.15
2023-04-16T14:00:15.319Z,4.75
2023-04-16T14:02:42.836Z,4.53
2023-04-16T14:05:09.697Z,5.20
2023-04-16T14:07:37.283Z,6.75
2023-04-16T14:10:03.990Z,7.85
2023-04-16T14:12:31.653Z,7.07
2023-04-16T14:14:58.392Z,4.53
2023-04-16T14:17:24.981Z,4.72
2023-04-16T14:19:51.669Z,3.95
2023-04-16T14:22:18.413Z,3.58
2023-04-16T14:24:44.933Z,3.38
2023-04-16T14:27:12.260Z,4.03
2023-04-16T14:29:38.813Z,5.38
2023-04-16T14:32:05.660Z,3.08
2023-04-16T14:34:32.210Z,5.55
2023-04-16T14:36:58.768Z,4.00
2023-04-16T14:39:25.298Z,7.72
2023-04-16T14:41:51.809Z,2.63
2023-04-16T14:44:18.306Z,6.93
2023-04-16T14:46:44.836Z,4.18
2023-04-16T14:49:12.456Z,4.35
2023-04-16T14:51:39.147Z,5.07
2023-04-16T14:54:05.728Z,2.45
2023-04-16T14:56:32.246Z,4.55
2023-04-16T14:58:58.784Z,5.68
2023-04-16T15:01:25.275Z,5.47
2023-04-16T15:03:51.873Z,12.05
2023-04-16T15:06:19.046Z,7.00
2023-04-16T15:08:45.956Z,4.35
2023-04-16T15:11:12.557Z,5.10
2023-04-16T15:13:39.147Z,5.60
2023-04-16T15:16:05.766Z,3.53
2023-04-16T15:18:32.735Z,6.68
2023-04-16T15:20:59.290Z,7.18
2023-04-16T15:23:25.822Z,6.78
2023-04-16T15:25:52.402Z,6.28
2023-04-16T15:28:18.918Z,9.25
2023-04-16T15:30:45.611Z,3.67
2023-04-16T15:33:12.258Z,4.10
2023-04-16T15:35:41.236Z,4.90
2023-04-16T15:38:08.347Z,4.75
2023-04-16T15:40:35.631Z,11.90
2023-04-16T15:43:02.165Z,7.63
2023-04-16T15:45:29.065Z,4.25
2023-04-16T15:47:56.080Z,5.82
2023-04-16T15:50:22.818Z,5.90
2023-04-16T15:52:49.488Z,4.38
2023-04-16T15:55:16.749Z,2.70
2023-04-16T15:57:43.285Z,4.40
2023-04-16T16:00:13.968Z,3.25
2023-04-16T16:02:41.868Z,3.38
2023-04-16T16:05:12.239Z,11.27
2023-04-16T16:07:38.774Z,5.63
2023-04-16T16:10:06.195Z,9.10
2023-04-16T16:12:33.178Z,3.80
2023-04-16T16:14:59.850Z,6.07
2023-04-16T16:17:26.381Z,8.25
2023-04-16T16:19:52.965Z,7.22
2023-04-16T16:22:20.734Z,5.88
2023-04-16T16:24:49.130Z,10.05
2023-04-16T16:27:16.107Z,11.45
2023-04-16T16:29:42.656Z,8.68
2023-04-16T16:32:09.379Z,7.68
2023-04-16T16:34:35.895Z,6.43
2023-04-16T16:37:02.385Z,11.68
2023-04-16T16:39:28.972Z,10.85
2023-04-16T16:41:56.935Z,10.55
2023-04-16T16:44:23.593Z,10.18
2023-04-16T16:46:50.329Z,9.15
2023-04-16T16:49:17.335Z,10.05
2023-04-16T16:51:47.221Z,9.73
2023-04-16T16:54:13.863Z,13.80
2023-04-16T16:56:40.585Z,10.52
2023-04-16T16:59:07.801Z,13.50
2023-04-16T17:01:34.637Z,13.43
2023-04-16T17:04:01.270Z,16.45
2023-04-16T17:06:27.866Z,17.98
2023-04-16T17:08:54.425Z,19.15
2023-04-16T17:11:21.047Z,14.88
2023-04-16T17:13:47.681Z,18.10
2023-04-16T17:16:15.597Z,16.45
2023-04-16T17:18:42.209Z,20.85
2023-04-16T17:21:08.720Z,17.63
2023-04-16T17:23:35.226Z,20.83
2023-04-16T17:26:01.949Z,18.52
2023-04-16T17:28:28.681Z,20.70
2023-04-16T17:30:57.056Z,23.13
2023-04-16T17:33:23.599Z,17.77
2023-04-16T17:35:50.108Z,24.83
2023-04-16T17:38:16.684Z,16.95
2023-04-16T17:40:43.222Z,20.35
2023-04-16T17:43:09.700Z,25.38
2023-04-16T17:45:36.423Z,17.35
2023-04-16T17:48:03.071Z,22.88
2023-04-16T17:50:29.619Z,19.80
2023-04-16T17:52:58.155Z,14.93
2023-04-16T17:55:24.741Z,15.48
2023-04-16T17:57:51.320Z,17.85
2023-04-16T18:00:18.062Z,18.17
2023-04-16T18:02:45.478Z,15.68
2023-04-16T18:05:12.158Z,18.13
2023-04-16T18:07:39.159Z,16.10
2023-04-16T18:10:06.023Z,13.63
2023-04-16T18:12:32.832Z,15.00
2023-04-16T18:14:59.304Z,18.52
2023-04-16T18:17:25.955Z,18.63
2023-04-16T18:19:52.552Z,18.23
2023-04-16T18:22:19.079Z,22.75
2023-04-16T18:24:45.648Z,17.45
2023-04-16T18:27:12.617Z,16.00
2023-04-16T18:29:40.500Z,17.98
2023-04-16T18:32:09.910Z,59.53
2023-04-16T18:34:38.367Z,43.53
2023-04-16T18:37:04.910Z,33.00
2023-04-16T18:39:32.802Z,28.98
2023-04-16T18:41:59.387Z,89.30
2023-04-16T18:44:26.470Z,59.10
2023-04-16T18:46:53.037Z,29.13
2023-04-16T18:49:19.577Z,22.73
2023-04-16T18:51:46.095Z,26.27
2023-04-16T18:54:12.569Z,21.40
2023-04-16T18:56:39.209Z,20.23
2023-04-16T18:59:05.739Z,20.70
2023-04-16T19:01:32.236Z,18.80
2023-04-16T19:03:58.801Z,16.33
2023-04-16T19:06:27.090Z,17.70
2023-04-16T19:08:53.574Z,21.23
2023-04-16T19:11:20.095Z,20.63
2023-04-16T19:13:46.582Z,18.10
2023-04-16T19:16:13.126Z,16.55
2023-04-16T19:18:39.689Z,15.73
2023-04-16T19:21:07.236Z,18.27
2023-04-16T19:23:35.161Z,17.23
2023-04-16T19:26:02.057Z,21.42
2023-04-16T19:28:28.816Z,31.42
2023-04-16T19:30:56.065Z,22.20
2023-04-16T19:33:22.688Z,39.00
2023-04-16T19:35:49.202Z,48.22
2023-04-16T19:38:15.681Z,34.97
2023-04-16T19:40:46.759Z,24.63
2023-04-16T19:43:13.412Z,15.90
2023-04-16T19:45:46.936Z,21.70
2023-04-16T19:48:13.733Z,19.92
2023-04-16T19:50:41.083Z,19.08
2023-04-16T19:53:08.287Z,20.50
2023-04-16T19:55:34.840Z,21.17
2023-04-16T19:58:06.082Z,16.38
2023-04-16T20:00:33.004Z,17.13
2023-04-16T20:02:59.617Z,14.23
2023-04-16T20:05:26.736Z,20.05
2023-04-16T20:07:53.807Z,16.17
2023-04-16T20:10:20.440Z,14.77
2023-04-16T20:12:47.388Z,21.33
2023-04-16T20:15:14.023Z,19.63
2023-04-16T20:17:40.768Z,19.20
2023-04-16T20:20:10.337Z,15.80
2023-04-16T20:22:40.075Z,31.42
2023-04-16T20:25:07.589Z,17.88
2023-04-16T20:27:34.179Z,18.27
2023-04-16T20:30:01.346Z,18.92
2023-04-16T20:32:28.139Z,21.13
2023-04-16T20:34:55.732Z,21.17
2023-04-16T20:37:22.319Z,22.20
2023-04-16T20:39:50.300Z,23.15
2023-04-16T20:42:16.863Z,25.60
2023-04-16T20:44:50.347Z,19.67
2023-04-16T20:47:20.115Z,20.80
2023-04-16T20:49:46.739Z,24.20
2023-04-16T20:52:13.481Z,19.10
2023-04-16T20:54:40.058Z,22.52
2023-04-16T20:57:06.684Z,18.88
2023-04-16T20:59:33.185Z,17.77
2023-04-16T21:01:59.938Z,16.83
2023-04-16T21:04:26.653Z,21.20
2023-04-16T21:06:55.948Z,17.75
2023-04-16T21:09:22.867Z,18.00
2023-04-16T21:11:49.336Z,20.52
2023-04-16T21:14:16.269Z,16.67
2023-04-16T21:16:42.836Z,19.10
2023-04-16T21:19:09.627Z,18.10
2023-04-16T21:21:38.304Z,21.48
2023-04-16T21:24:04.917Z,19.33
2023-04-16T21:26:31.415Z,23.65
2023-04-16T21:28:57.946Z,20.90
2023-04-16T21:31:24.509Z,20.15
2023-04-16T21:33:51.090Z,20.45
2023-04-16T21:36:17.601Z,13.98
2023-04-16T21:38:44.140Z,17.70
2023-04-16T21:41:10.920Z,23.42
2023-04-16T21:43:37.415Z,21.25
2023-04-16T21:46:03.958Z,19.73
2023-04-16T21:48:30.462Z,19.55
2023-04-16T21:50:58.236Z,22.90
2023-04-16T21:53:25.546Z,31.58
2023-04-16T21:55:52.355Z,25.98
2023-04-16T21:58:18.859Z,26.75
2023-04-16T22:00:45.536Z,25.58
2023-04-16T22:03:12.525Z,18.75
2023-04-16T22:05:39.323Z,25.40
2023-04-16T22:08:23.591Z,25.80
2023-04-16T22:10:50.930Z,20.88
2023-04-16T22:13:18.000Z,21.63
2023-04-16T22:15:44.530Z,25.98
2023-04-16T22:18:11.548Z,22.27
2023-04-16T22:20:39.130Z,17.90
2023-04-16T22:23:08.076Z,23.02
2023-04-16T22:25:34.602Z,24.90
2023-04-16T22:28:01.720Z,22.48
2023-04-16T22:30:28.368Z,27.23
2023-04-16T22:32:55.299Z,28.60
2023-04-16T22:35:21.898Z,27.85
2023-04-16T22:37:48.384Z,30.52
2023-04-16T22:40:16.005Z,27.70
2023-04-16T22:42:42.678Z,28.13
2023-04-16T22:45:09.404Z,23.85
2023-04-16T22:47:36.061Z,23.02
2023-04-16T22:50:03.306Z,20.05
2023-04-16T22:52:29.941Z,23.58
2023-04-16T22:54:56.503Z,26.75
2023-04-16T22:57:25.703Z,27.23
2023-04-16T22:59:53.064Z,27.25
2023-04-16T23:02:20.809Z,23.00
2023-04-16T23:04:48.093Z,26.00
2023-04-16T23:07:14.941Z,26.98
2023-04-16T23:09:41.451Z,22.35
2023-04-16T23:12:08.291Z,34.28
2023-04-16T23:14:35.237Z,30.83
2023-04-16T23:17:02.010Z,29.48
2023-04-16T23:19:28.953Z,28.00
2023-04-16T23:21:55.531Z,25.55
2023-04-16T23:24:22.059Z,26.50
2023-04-16T23:26:48.726Z,22.27
2023-04-16T23:29:15.261Z,26.58
2023-04-16T23:31:41.792Z,26.90
2023-04-16T23:34:08.455Z,21.77
2023-04-16T23:36:34.991Z,29.20
2023-04-16T23:39:01.460Z,22.17
2023-04-16T23:41:27.984Z,25.17
2023-04-16T23:43:54.574Z,26.52
2023-04-16T23:46:21.267Z,20.45
2023-04-16T23:48:47.787Z,25.75
2023-04-16T23:51:14.267Z,27.35
2023-04-16T23:53:41.071Z,28.85
2023-04-16T23:56:07.966Z,33.92
2023-04-16T23:58:34.492Z,31.23
